createdAt,value
2019-02-09T00:00:46.200Z,24.03
2019-02-09T00:03:17.181Z,19.07
2019-02-09T00:05:48.325Z,23.33
2019-02-09T00:08:19.487Z,22.13
2019-02-09T00:10:50.620Z,20.53
2019-02-09T00:13:22.279Z,23.07
2019-02-09T00:15:53.348Z,21.07
2019-02-09T00:18:24.314Z,22.30
2019-02-09T00:20:55.268Z,22.70
2019-02-09T00:23:26.422Z,19.97
2019-02-09T00:25:57.336Z,22.13
2019-02-09T00:28:28.298Z,22.83
2019-02-09T00:30:59.361Z,19.27
2019-02-09T00:33:30.503Z,21.37
2019-02-09T00:36:01.677Z,14.00
2019-02-09T00:38:32.838Z,23.47
2019-02-09T00:41:03.878Z,20.70
2019-02-09T00:43:34.824Z,21.40
2019-02-09T00:46:06.185Z,21.87
2019-02-09T00:48:37.158Z,20.63
2019-02-09T00:51:09.337Z,15.97
2019-02-09T00:53:40.443Z,21.57
2019-02-09T00:56:11.616Z,19.37
2019-02-09T00:58:42.673Z,16.27
2019-02-09T01:01:13.668Z,18.63
2019-02-09T01:03:44.842Z,18.90
2019-02-09T01:06:15.773Z,18.67
2019-02-09T01:08:47.000Z,18.67
2019-02-09T01:11:18.054Z,18.37
2019-02-09T01:13:49.164Z,17.90
2019-02-09T01:16:20.218Z,19.53
2019-02-09T01:18:51.417Z,20.93
2019-02-09T01:21:22.548Z,18.30
2019-02-09T01:23:53.489Z,20.23
2019-02-09T01:26:24.579Z,19.30
2019-02-09T01:28:55.558Z,9.30
2019-02-09T01:31:26.574Z,18.57
2019-02-09T01:33:57.549Z,20.53
2019-02-09T01:36:28.566Z,15.83
2019-02-09T01:38:59.811Z,17.10
2019-02-09T01:41:30.814Z,18.67
2019-02-09T01:44:02.003Z,20.10
2019-02-09T01:46:32.893Z,16.33
2019-02-09T01:49:03.997Z,20.60
2019-02-09T01:51:34.914Z,11.53
2019-02-09T01:54:06.084Z,15.90
2019-02-09T01:56:38.132Z,18.80
2019-02-09T01:59:09.273Z,20.97
2019-02-09T02:01:40.554Z,20.07
2019-02-09T02:04:11.689Z,20.00
2019-02-09T02:06:42.713Z,22.00
2019-02-09T02:09:13.813Z,20.97
2019-02-09T02:11:44.828Z,21.87
2019-02-09T02:14:15.846Z,23.30
2019-02-09T02:16:46.903Z,20.73
2019-02-09T02:19:17.843Z,20.03
2019-02-09T02:21:48.747Z,20.20
2019-02-09T02:24:19.802Z,21.93
2019-02-09T02:26:50.726Z,24.53
2019-02-09T02:29:21.622Z,21.03
2019-02-09T02:31:52.564Z,23.23
2019-02-09T02:34:23.697Z,20.93
2019-02-09T02:36:54.616Z,23.60
2019-02-09T02:39:25.583Z,22.33
2019-02-09T02:41:56.535Z,23.40
2019-02-09T02:44:27.600Z,19.33
2019-02-09T02:46:58.715Z,22.33
2019-02-09T02:49:29.835Z,21.43
2019-02-09T02:52:00.723Z,21.43
2019-02-09T02:54:31.881Z,21.57
2019-02-09T02:57:02.810Z,19.27
2019-02-09T02:59:33.984Z,19.63
2019-02-09T03:02:05.314Z,24.27
2019-02-09T03:04:36.345Z,22.13
2019-02-09T03:07:07.945Z,20.53
2019-02-09T03:09:39.109Z,22.30
2019-02-09T03:12:10.142Z,22.33
2019-02-09T03:14:41.273Z,21.40
2019-02-09T03:17:12.209Z,17.87
2019-02-09T03:19:43.173Z,21.43
2019-02-09T03:22:14.330Z,20.00
2019-02-09T03:24:45.267Z,17.00
2019-02-09T03:27:16.264Z,15.90
2019-02-09T03:29:47.327Z,21.47
2019-02-09T03:32:18.409Z,20.00
2019-02-09T03:34:49.434Z,22.30
2019-02-09T03:37:20.326Z,21.37
2019-02-09T03:39:51.325Z,22.40
2019-02-09T03:42:22.389Z,22.67
2019-02-09T03:44:53.411Z,17.37
2019-02-09T03:47:24.411Z,24.03
2019-02-09T03:49:55.487Z,21.37
2019-02-09T03:52:26.450Z,20.63
2019-02-09T03:54:58.540Z,18.03
2019-02-09T03:57:29.741Z,21.90
2019-02-09T04:00:00.932Z,22.73
2019-02-09T04:02:32.034Z,20.60
2019-02-09T04:05:02.994Z,19.67
2019-02-09T04:07:34.013Z,18.43
2019-02-09T04:10:06.060Z,20.07
2019-02-09T04:12:37.054Z,20.03
2019-02-09T04:15:09.350Z,18.37
2019-02-09T04:17:40.258Z,18.17
2019-02-09T04:20:13.095Z,17.80
2019-02-09T04:22:44.150Z,18.57
2019-02-09T04:25:16.680Z,17.10
2019-02-09T04:27:47.943Z,19.47
2019-02-09T04:30:27.474Z,16.60
2019-02-09T04:32:58.751Z,20.30
2019-02-09T04:35:30.056Z,17.97
2019-02-09T04:38:01.044Z,18.67
2019-02-09T04:40:32.853Z,17.77
2019-02-09T04:43:03.914Z,13.73
2019-02-09T04:45:34.845Z,17.90
2019-02-09T04:48:06.237Z,19.67
2019-02-09T04:50:37.377Z,13.57
2019-02-09T04:53:09.344Z,19.50
2019-02-09T04:55:40.521Z,16.40
2019-02-09T04:58:11.450Z,18.27
2019-02-09T05:00:45.035Z,15.40
2019-02-09T05:03:16.217Z,15.90
2019-02-09T05:05:47.640Z,11.97
2019-02-09T05:08:18.545Z,15.37
2019-02-09T05:10:49.745Z,15.10
2019-02-09T05:13:20.703Z,14.03
2019-02-09T05:15:51.763Z,14.03
2019-02-09T05:18:22.716Z,14.77
2019-02-09T05:20:53.729Z,15.27
2019-02-09T05:23:24.696Z,15.17
2019-02-09T05:25:55.764Z,14.50
2019-02-09T05:28:27.157Z,15.93
2019-02-09T05:31:08.563Z,16.03
2019-02-09T05:33:40.804Z,16.07
2019-02-09T05:36:11.807Z,13.63
2019-02-09T05:41:33.802Z,16.70
2019-02-09T05:44:05.181Z,15.77
2019-02-09T05:46:36.206Z,16.77
2019-02-09T05:49:07.127Z,18.00
2019-02-09T05:51:38.114Z,17.03
2019-02-09T05:54:09.234Z,15.70
2019-02-09T05:56:40.219Z,16.87
2019-02-09T05:59:11.548Z,11.50
2019-02-09T06:01:42.545Z,13.93
2019-02-09T06:04:13.445Z,16.30
2019-02-09T06:06:55.228Z,10.60
2019-02-09T06:09:38.174Z,15.67
2019-02-09T06:12:09.164Z,16.03
2019-02-09T06:14:40.329Z,14.77
2019-02-09T06:17:11.544Z,14.13
2019-02-09T06:19:42.473Z,14.23
2019-02-09T06:22:13.675Z,13.80
2019-02-09T06:24:44.621Z,12.20
2019-02-09T06:27:15.772Z,14.07
2019-02-09T06:29:46.766Z,14.23
2019-02-09T06:32:18.589Z,12.70
2019-02-09T06:34:49.723Z,12.33
2019-02-09T06:37:21.398Z,12.87
2019-02-09T06:39:52.933Z,13.40
2019-02-09T06:42:24.901Z,13.03
2019-02-09T06:44:56.621Z,13.77
2019-02-09T06:47:28.295Z,13.40
2019-02-09T06:49:59.465Z,13.50
2019-02-09T06:52:30.584Z,10.33
2019-02-09T06:55:01.684Z,12.37
2019-02-09T06:57:32.783Z,13.43
2019-02-09T07:00:03.787Z,12.57
2019-02-09T07:02:35.552Z,12.60
2019-02-09T07:05:07.987Z,12.87
2019-02-09T07:07:39.078Z,14.37
2019-02-09T07:10:10.915Z,11.27
2019-02-09T07:12:42.264Z,12.27
2019-02-09T07:15:16.463Z,13.53
2019-02-09T07:17:47.735Z,16.00
2019-02-09T07:20:19.083Z,12.30
2019-02-09T07:22:50.342Z,16.00
2019-02-09T07:25:21.545Z,15.90
2019-02-09T07:27:53.364Z,15.93
2019-02-09T07:30:26.375Z,15.07
2019-02-09T07:32:58.520Z,16.20
2019-02-09T07:35:29.722Z,15.03
2019-02-09T07:38:01.234Z,12.73
2019-02-09T07:40:32.836Z,16.37
2019-02-09T07:43:07.067Z,17.20
2019-02-09T07:45:38.344Z,17.77
2019-02-09T07:48:09.359Z,17.57
2019-02-09T07:50:40.922Z,18.13
2019-02-09T07:53:12.328Z,17.17
2019-02-09T07:55:51.398Z,18.33
2019-02-09T07:58:24.407Z,17.03
2019-02-09T08:00:55.596Z,17.73
2019-02-09T08:03:26.642Z,17.67
2019-02-09T08:05:58.143Z,19.50
2019-02-09T08:08:29.904Z,16.87
2019-02-09T08:11:08.831Z,18.60
2019-02-09T08:13:33.575Z,18.67
2019-02-09T08:16:24.139Z,20.37
2019-02-09T08:18:55.165Z,20.30
2019-02-09T08:21:26.252Z,19.67
2019-02-09T08:23:57.337Z,19.17
2019-02-09T08:26:28.423Z,15.67
2019-02-09T08:29:00.075Z,18.60
2019-02-09T08:31:30.978Z,18.57
2019-02-09T08:34:02.129Z,14.77
2019-02-09T08:36:33.031Z,18.23
2019-02-09T08:39:06.206Z,20.13
2019-02-09T08:41:37.795Z,18.93
2019-02-09T08:44:08.790Z,16.00
2019-02-09T08:46:39.755Z,19.93
2019-02-09T08:49:11.136Z,20.37
2019-02-09T08:51:42.063Z,18.27
2019-02-09T08:54:13.153Z,19.33
2019-02-09T08:56:44.307Z,17.13
2019-02-09T08:59:16.854Z,19.97
2019-02-09T09:01:48.489Z,18.63
2019-02-09T09:04:20.175Z,18.77
2019-02-09T09:06:51.389Z,16.40
2019-02-09T09:09:22.453Z,16.50
2019-02-09T09:11:53.471Z,19.87
2019-02-09T09:14:26.130Z,20.17
2019-02-09T09:16:57.833Z,19.27
2019-02-09T09:19:29.861Z,18.63
2019-02-09T09:22:00.828Z,17.23
2019-02-09T09:24:31.948Z,16.33
2019-02-09T09:27:03.986Z,18.33
2019-02-09T09:29:35.045Z,18.27
2019-02-09T09:32:06.392Z,18.20
2019-02-09T09:34:37.529Z,19.93
2019-02-09T09:37:09.175Z,18.30
2019-02-09T09:39:40.296Z,16.90
2019-02-09T09:42:11.505Z,18.63
2019-02-09T09:44:42.713Z,13.83
2019-02-09T09:47:13.834Z,19.67
2019-02-09T09:49:44.809Z,18.17
2019-02-09T09:52:15.898Z,16.13
2019-02-09T09:54:47.028Z,15.90
2019-02-09T09:57:18.131Z,18.63
2019-02-09T09:59:50.320Z,19.10
2019-02-09T10:02:36.432Z,16.53
2019-02-09T10:05:07.832Z,18.47
2019-02-09T10:07:44.392Z,17.13
2019-02-09T10:10:25.016Z,18.77
2019-02-09T10:13:05.420Z,17.37
2019-02-09T10:15:39.109Z,19.87
2019-02-09T10:18:19.489Z,20.93
2019-02-09T10:20:52.008Z,19.27
2019-02-09T10:23:23.833Z,19.33
2019-02-09T10:25:54.635Z,19.43
2019-02-09T10:28:25.405Z,18.47
2019-02-09T10:30:56.192Z,18.00
2019-02-09T10:33:27.019Z,17.23
2019-02-09T10:38:40.294Z,16.40
2019-02-09T10:41:11.081Z,18.57
2019-02-09T10:43:45.275Z,19.90
2019-02-09T10:46:16.144Z,21.70
2019-02-09T10:48:46.981Z,18.63
2019-02-09T10:51:17.770Z,19.53
2019-02-09T10:53:48.548Z,9.07
2019-02-09T10:56:19.339Z,18.73
2019-02-09T10:58:50.534Z,19.33
2019-02-09T11:01:23.266Z,18.20
2019-02-09T11:03:54.076Z,18.63
2019-02-09T11:06:24.934Z,19.30
2019-02-09T11:09:12.670Z,17.80
2019-02-09T11:12:04.150Z,19.90
2019-02-09T11:14:47.927Z,15.50
2019-02-09T11:17:43.172Z,13.33
2019-02-09T11:20:16.932Z,15.40
2019-02-09T11:22:48.749Z,16.77
2019-02-09T11:25:20.732Z,16.93
2019-02-09T11:27:53.048Z,15.53
2019-02-09T11:30:28.067Z,16.50
2019-02-09T11:33:02.321Z,17.00
2019-02-09T11:35:34.202Z,16.47
2019-02-09T11:38:09.110Z,17.30
2019-02-09T11:40:42.513Z,12.87
2019-02-09T11:43:14.205Z,15.53
2019-02-09T11:45:55.746Z,11.23
2019-02-09T11:48:27.691Z,13.77
2019-02-09T11:51:00.218Z,12.13
2019-02-09T11:53:32.692Z,15.57
2019-02-09T11:56:05.647Z,14.43
2019-02-09T11:58:49.209Z,16.33
2019-02-09T12:01:21.370Z,15.33
2019-02-09T12:03:56.982Z,14.40
2019-02-09T12:06:30.336Z,21.77
2019-02-09T12:09:02.017Z,15.50
2019-02-09T12:11:35.533Z,14.60
2019-02-09T12:14:10.085Z,16.03
2019-02-09T12:16:42.307Z,8.97
2019-02-09T12:19:15.600Z,19.43
2019-02-09T12:21:47.152Z,16.37
2019-02-09T12:24:18.856Z,16.30
2019-02-09T12:26:50.734Z,13.20
2019-02-09T12:29:22.378Z,15.37
2019-02-09T12:31:54.602Z,17.10
2019-02-09T12:34:26.356Z,19.53
2019-02-09T12:36:57.587Z,14.47
2019-02-09T12:39:29.228Z,22.13
2019-02-09T12:42:01.073Z,16.90
2019-02-09T12:44:32.649Z,15.23
2019-02-09T12:47:04.504Z,16.93
2019-02-09T12:49:36.169Z,18.17
2019-02-09T12:52:08.122Z,15.40
2019-02-09T12:54:39.717Z,15.47
2019-02-09T12:57:11.481Z,20.77
2019-02-09T12:59:42.290Z,21.33
2019-02-09T13:02:13.098Z,21.47
2019-02-09T13:04:43.932Z,20.60
2019-02-09T13:07:14.775Z,20.63
2019-02-09T13:09:45.744Z,12.73
2019-02-09T13:12:16.762Z,19.77
2019-02-09T13:14:48.935Z,16.87
2019-02-09T13:17:21.205Z,13.73
2019-02-09T13:19:53.790Z,19.37
2019-02-09T13:22:25.696Z,15.50
2019-02-09T13:24:58.785Z,22.20
2019-02-09T13:27:30.790Z,19.33
2019-02-09T13:30:02.291Z,17.97
2019-02-09T13:33:11.541Z,16.30
2019-02-09T13:35:45.672Z,11.63
2019-02-09T13:47:39.424Z,16.33
2019-02-09T13:50:12.509Z,16.90
2019-02-09T13:52:43.605Z,18.50
2019-02-09T13:55:14.925Z,18.13
2019-02-09T13:57:46.002Z,19.47
2019-02-09T14:00:19.418Z,15.90
2019-02-09T14:02:51.808Z,18.80
2019-02-09T14:05:23.660Z,11.97
2019-02-09T14:07:54.967Z,12.70
2019-02-09T14:10:27.138Z,17.53
2019-02-09T14:12:58.292Z,16.77
2019-02-09T14:15:31.566Z,17.00
2019-02-09T14:18:05.846Z,16.97
2019-02-09T14:20:37.814Z,16.10
2019-02-09T14:23:09.851Z,16.23
2019-02-09T14:25:43.340Z,15.40
2019-02-09T14:28:14.549Z,17.50
2019-02-09T14:30:48.751Z,19.53
2019-02-09T14:33:21.091Z,18.27
2019-02-09T14:35:58.269Z,18.97
2019-02-09T14:38:32.734Z,18.57
2019-02-09T14:41:04.408Z,19.70
2019-02-09T14:43:36.125Z,19.30
2019-02-09T14:46:08.378Z,19.20
2019-02-09T14:48:43.036Z,18.10
2019-02-09T14:51:16.362Z,18.03
2019-02-09T14:53:47.508Z,19.87
2019-02-09T14:56:20.143Z,21.17
2019-02-09T14:58:51.427Z,13.07
2019-02-09T15:01:26.875Z,19.17
2019-02-09T15:04:02.804Z,21.30
2019-02-09T15:06:31.531Z,20.77
2019-02-09T15:09:04.601Z,18.30
2019-02-09T15:11:36.936Z,15.93
2019-02-09T15:14:08.087Z,20.13
2019-02-09T15:16:48.484Z,19.47
2019-02-09T15:19:22.138Z,20.10
2019-02-09T15:24:33.256Z,19.10
2019-02-09T15:27:08.005Z,17.17
2019-02-09T15:29:38.964Z,18.33
2019-02-09T15:32:10.245Z,15.80
2019-02-09T15:34:41.255Z,14.63
2019-02-09T15:37:12.464Z,14.63
2019-02-09T15:39:43.491Z,16.43
2019-02-09T15:42:16.038Z,12.83
2019-02-09T15:44:47.401Z,16.07
2019-02-09T15:47:18.426Z,15.47
2019-02-09T15:49:49.619Z,15.70
2019-02-09T15:52:20.709Z,17.80
2019-02-09T15:54:51.787Z,16.43
2019-02-09T15:58:24.990Z,16.33
2019-02-09T16:00:56.289Z,16.70
2019-02-09T16:03:27.916Z,15.27
2019-02-09T16:05:59.288Z,17.87
2019-02-09T16:08:30.953Z,14.50
2019-02-09T16:11:02.263Z,18.40
2019-02-09T16:13:33.501Z,17.17
2019-02-09T16:16:04.641Z,19.17
2019-02-09T16:18:35.681Z,17.80
2019-02-09T16:21:07.005Z,15.87
2019-02-09T16:23:38.412Z,20.23
2019-02-09T16:26:09.927Z,17.43
2019-02-09T16:28:41.570Z,19.77
2019-02-09T16:31:12.779Z,19.53
2019-02-09T16:33:43.933Z,17.57
2019-02-09T16:36:15.726Z,17.00
2019-02-09T16:38:46.996Z,14.63
2019-02-09T16:41:18.051Z,18.63
2019-02-09T16:43:49.076Z,17.53
2019-02-09T16:46:20.963Z,14.03
2019-02-09T16:48:52.094Z,16.07
2019-02-09T16:51:23.204Z,16.23
2019-02-09T16:53:54.298Z,17.30
2019-02-09T16:56:25.472Z,16.87
2019-02-09T16:58:56.428Z,14.13
2019-02-09T17:01:27.745Z,17.83
2019-02-09T17:03:58.728Z,17.00
2019-02-09T17:06:29.976Z,18.03
2019-02-09T17:09:01.051Z,15.53
2019-02-09T17:11:33.901Z,14.20
2019-02-09T17:14:05.217Z,14.07
2019-02-09T17:16:36.657Z,11.03
2019-02-09T17:19:08.128Z,7.57
2019-02-09T17:21:40.024Z,11.83
2019-02-09T17:24:11.759Z,9.17
2019-02-09T17:26:43.514Z,13.07
2019-02-09T17:29:15.224Z,12.13
2019-02-09T17:31:46.864Z,8.40
2019-02-09T17:34:18.628Z,11.27
2019-02-09T17:36:51.886Z,11.60
2019-02-09T17:39:23.865Z,9.73
2019-02-09T17:41:55.431Z,10.40
2019-02-09T17:44:26.866Z,10.87
2019-02-09T17:46:58.550Z,9.87
2019-02-09T17:49:30.327Z,10.07
2019-02-09T17:52:01.919Z,9.33
2019-02-09T17:54:33.486Z,8.53
2019-02-09T17:57:05.163Z,9.83
2019-02-09T17:59:36.797Z,10.67
2019-02-09T18:02:08.169Z,10.33
2019-02-09T18:04:38.946Z,11.27
2019-02-09T18:07:10.008Z,9.03
2019-02-09T18:09:40.893Z,9.17
2019-02-09T18:12:12.045Z,11.20
2019-02-09T18:14:42.909Z,12.23
2019-02-09T18:17:13.851Z,11.67
2019-02-09T18:19:44.603Z,11.10
2019-02-09T18:22:15.561Z,10.33
2019-02-09T18:24:46.418Z,8.80
2019-02-09T18:27:17.367Z,9.13
2019-02-09T18:29:48.344Z,8.00
2019-02-09T18:32:19.279Z,7.70
2019-02-09T18:34:56.019Z,7.50
2019-02-09T18:37:22.867Z,6.53
2019-02-09T18:39:53.731Z,7.30
2019-02-09T18:42:24.611Z,6.57
2019-02-09T18:44:55.411Z,7.53
2019-02-09T18:47:26.527Z,6.50
2019-02-09T18:49:57.289Z,7.27
2019-02-09T18:52:28.315Z,6.47
2019-02-09T18:54:59.143Z,6.97
2019-02-09T18:57:30.062Z,7.07
2019-02-09T19:00:00.993Z,7.53
2019-02-09T19:02:38.322Z,6.43
2019-02-09T19:05:06.313Z,6.03
2019-02-09T19:07:37.440Z,5.03
2019-02-09T19:10:11.480Z,5.37
2019-02-09T19:12:42.851Z,4.77
2019-02-09T19:15:14.281Z,5.63
2019-02-09T19:17:45.817Z,4.40
2019-02-09T19:20:27.508Z,5.03
2019-02-09T19:22:59.371Z,4.43
2019-02-09T19:25:31.171Z,4.83
2019-02-09T19:28:02.698Z,4.93
2019-02-09T19:30:35.612Z,4.30
2019-02-09T19:33:07.899Z,4.60
2019-02-09T19:35:39.119Z,4.67
2019-02-09T19:38:10.532Z,4.47
2019-02-09T19:40:41.934Z,5.07
2019-02-09T19:43:13.434Z,4.57
2019-02-09T19:45:44.659Z,4.83
2019-02-09T19:48:16.164Z,4.80
2019-02-09T19:50:48.850Z,4.50
2019-02-09T19:53:20.536Z,5.07
2019-02-09T19:55:51.940Z,5.43
2019-02-09T19:58:24.458Z,5.50
2019-02-09T20:00:55.735Z,5.30
2019-02-09T20:03:27.143Z,5.30
2019-02-09T20:05:58.492Z,6.30
2019-02-09T20:08:29.831Z,5.43
2019-02-09T20:11:01.301Z,5.73
2019-02-09T20:13:32.812Z,5.83
2019-02-09T20:16:04.002Z,7.03
2019-02-09T20:18:35.671Z,4.70
2019-02-09T20:21:07.224Z,6.43
2019-02-09T20:23:38.565Z,5.50
2019-02-09T20:26:09.943Z,6.80
2019-02-09T20:28:41.454Z,5.97
2019-02-09T20:31:12.885Z,4.77
2019-02-09T20:33:44.351Z,5.27
2019-02-09T20:36:16.287Z,7.00
2019-02-09T20:38:47.797Z,5.20
2019-02-09T20:41:19.076Z,7.00
2019-02-09T20:43:50.355Z,5.60
2019-02-09T20:46:21.747Z,5.57
2019-02-09T20:48:52.836Z,5.53
2019-02-09T20:51:25.659Z,5.50
2019-02-09T20:53:57.246Z,5.07
2019-02-09T20:56:28.725Z,4.97
2019-02-09T20:59:00.436Z,5.10
2019-02-09T21:01:31.520Z,4.97
2019-02-09T21:04:03.031Z,5.67
2019-02-09T21:06:34.345Z,5.47
2019-02-09T21:09:08.334Z,5.00
2019-02-09T21:11:39.456Z,4.40
2019-02-09T21:14:10.928Z,4.20
2019-02-09T21:16:42.393Z,4.73
2019-02-09T21:19:13.517Z,4.47
2019-02-09T21:21:44.918Z,4.40
2019-02-09T21:24:16.542Z,4.70
2019-02-09T21:26:47.953Z,4.57
2019-02-09T21:29:19.204Z,3.93
2019-02-09T21:31:50.583Z,4.43
2019-02-09T21:34:21.827Z,4.20
2019-02-09T21:36:53.414Z,4.27
2019-02-09T21:39:24.761Z,4.57
2019-02-09T21:41:56.373Z,4.33
2019-02-09T21:44:28.143Z,4.37
2019-02-09T21:46:59.751Z,4.07
2019-02-09T21:49:30.883Z,3.90
2019-02-09T21:52:02.087Z,3.63
2019-02-09T21:54:33.596Z,4.80
2019-02-09T21:57:04.864Z,4.83
2019-02-09T21:59:37.305Z,3.63
2019-02-09T22:02:08.874Z,4.43
2019-02-09T22:04:40.433Z,4.30
2019-02-09T22:07:11.626Z,5.03
2019-02-09T22:09:42.687Z,4.43
2019-02-09T22:12:14.235Z,4.67
2019-02-09T22:14:45.660Z,4.00
2019-02-09T22:17:19.641Z,5.13
2019-02-09T22:19:50.855Z,4.80
2019-02-09T22:22:22.234Z,5.03
2019-02-09T22:24:53.635Z,4.37
2019-02-09T22:27:25.100Z,3.27
2019-02-09T22:29:56.633Z,3.30
2019-02-09T22:32:27.949Z,4.00
2019-02-09T22:34:59.006Z,4.70
2019-02-09T22:37:30.598Z,4.30
2019-02-09T22:40:08.273Z,5.07
2019-02-09T22:42:39.994Z,4.33
2019-02-09T22:45:11.663Z,4.83
2019-02-09T22:47:43.059Z,4.10
2019-02-09T22:50:20.462Z,5.03
2019-02-09T22:52:52.030Z,4.40
2019-02-09T22:55:23.680Z,4.60
2019-02-09T22:57:55.615Z,4.47
2019-02-09T23:01:13.575Z,4.73
2019-02-09T23:03:49.386Z,4.47
2019-02-09T23:06:52.745Z,3.83
2019-02-09T23:09:28.495Z,4.30
2019-02-09T23:11:59.716Z,4.37
2019-02-09T23:14:30.899Z,4.10
2019-02-09T23:17:02.186Z,3.00
2019-02-09T23:19:33.531Z,3.97
2019-02-09T23:22:06.706Z,4.53
2019-02-09T23:24:37.916Z,3.90
2019-02-09T23:27:09.481Z,4.20
2019-02-09T23:29:40.850Z,3.37
2019-02-09T23:32:11.874Z,3.23
2019-02-09T23:34:43.017Z,4.03
2019-02-09T23:37:14.317Z,4.23
2019-02-09T23:39:45.486Z,4.10
2019-02-09T23:42:16.574Z,3.83
2019-02-09T23:44:48.159Z,2.60
2019-02-09T23:47:19.108Z,2.30
2019-02-09T23:49:50.463Z,3.40
2019-02-09T23:52:21.977Z,3.23
2019-02-09T23:54:54.892Z,2.90
2019-02-09T23:57:26.187Z,2.77
2019-02-09T23:59:57.280Z,1.70
